Time;durP1;ratioP1;P1;durP2;ratioP2;P2;SDS_P1;SDS_P2;PMS_P1;PMS_P2;Temp;Humidity;BMP_temperature;BMP_pressure;BME280_temperature;BME280_humidity;BME280_pressure;Samples;Min_cycle;Max_cycle;Signal;HPM_P1;HPM_P2
2021/09/30 00:08:15;;;;;;;0.30;0.30;;;10.70;89.30;9.60;102268.00;;;;31166549;28;20528;-65
2021/09/30 03:12:44;;;;;;;0.20;0.20;;;9.70;90.40;8.50;102337.00;;;;31155220;28;20057;-63
2021/09/30 03:27:54;;;;;;;0.30;0.30;;;9.50;90.30;8.40;102343.00;;;;31153844;28;20045;-63
2021/09/30 03:42:59;;;;;;;0.20;0.20;;;9.40;90.40;8.30;102350.00;;;;31150158;28;20033;-63
2021/09/30 04:13:26;;;;;;;0.27;0.27;;;9.20;90.40;8.10;102371.00;;;;31211066;28;20427;-63
2021/09/30 04:28:27;;;;;;;0.20;0.20;;;9.20;90.60;8.00;102374.00;;;;31185941;28;20117;-63
2021/09/30 04:43:34;;;;;;;0.20;0.20;;;9.10;90.40;8.00;102386.00;;;;31173392;28;20080;-63
2021/09/30 04:58:36;;;;;;;0.22;0.22;;;9.00;90.80;7.90;102406.00;;;;31166825;28;20057;-63
2021/09/30 05:13:39;;;;;;;0.20;0.20;;;8.90;90.60;7.90;102408.00;;;;31174100;28;20824;-63
2021/09/30 05:28:41;;;;;;;0.20;0.20;;;9.00;90.40;7.80;102416.00;;;;31191412;28;20037;-63
2021/09/30 05:43:49;;;;;;;0.10;0.10;;;8.90;90.40;7.80;102415.00;;;;31185046;28;20076;-64
2021/09/30 05:58:51;;;;;;;0.20;0.20;;;8.90;90.30;7.80;102404.00;;;;31204434;28;20041;-64
2021/09/30 06:28:59;;;;;;;0.20;0.20;;;9.10;90.30;8.10;102417.00;;;;31190672;28;20095;-64
2021/09/30 06:44:01;;;;;;;0.20;0.20;;;9.50;89.70;8.60;102425.00;;;;31188607;28;20044;-63
2021/09/30 06:59:24;;;;;;;0.20;0.20;;;9.50;90.10;9.00;102449.00;;;;31164374;28;20051;-63
2021/09/30 07:14:50;;;;;;;0.10;0.10;;;9.30;89.50;9.60;102444.00;;;;31183244;28;20584;-63
2021/09/30 07:29:53;;;;;;;0.25;0.25;;;10.80;86.30;10.10;102448.00;;;;31175475;28;20052;-63
2021/09/30 07:44:54;;;;;;;0.10;0.10;;;11.20;86.10;10.30;102457.00;;;;31180770;28;20061;-63
2021/09/30 07:59:57;;;;;;;0.20;0.20;;;11.20;85.10;10.90;102467.00;;;;31172725;28;20041;-64
2021/09/30 08:15:02;;;;;;;0.38;0.38;;;12.20;83.30;11.30;102477.00;;;;31174609;28;20045;-63
2021/09/30 08:30:07;;;;;;;0.10;0.10;;;12.40;82.20;11.80;102487.00;;;;31175280;28;20060;-63
2021/09/30 08:45:09;;;;;;;0.30;0.30;;;12.80;81.40;12.20;102504.00;;;;31176282;28;20055;-63
2021/09/30 09:00:12;;;;;;;0.10;0.10;;;12.90;80.20;12.70;102499.00;;;;31173196;28;20084;-63
2021/09/30 09:15:13;;;;;;;0.10;0.10;;;13.70;77.50;13.20;102500.00;;;;31168121;28;20053;-63
2021/09/30 09:30:50;;;;;;;0.10;0.10;;;14.10;78.00;13.70;102501.00;;;;31171278;28;20081;-64
2021/09/30 09:45:52;;;;;;;0.50;0.50;;;14.50;73.20;13.80;102496.00;;;;31169814;28;21173;-63
2021/09/30 10:01:02;;;;;;;0.38;0.38;;;14.80;72.00;14.20;102500.00;;;;31187160;28;20808;-63
2021/09/30 10:16:04;;;;;;;0.10;0.10;;;14.80;72.40;14.20;102493.00;;;;31191110;28;20060;-64
2021/09/30 10:31:29;;;;;;;0.40;0.40;;;15.10;70.40;14.50;102475.00;;;;31179452;28;20056;-64
2021/09/30 10:46:45;;;;;;;0.10;0.10;;;15.20;69.30;14.60;102478.00;;;;31180343;28;20058;-63
2021/09/30 11:01:57;;;;;;;1.23;1.13;;;15.40;68.90;14.80;102476.00;;;;31181348;28;20055;-64
2021/09/30 11:16:58;;;;;;;0.10;0.10;;;15.60;65.80;14.90;102478.00;;;;31182277;28;20045;-64
2021/09/30 11:31:59;;;;;;;0.22;0.22;;;15.80;64.10;15.20;102470.00;;;;31181749;28;20049;-63
2021/09/30 11:47:04;;;;;;;0.10;0.10;;;16.10;62.50;15.50;102459.00;;;;31181352;28;20060;-64
2021/09/30 12:02:07;;;;;;;0.10;0.10;;;16.20;63.00;15.20;102450.00;;;;31176459;28;20037;-64
2021/09/30 12:17:16;;;;;;;0.10;0.10;;;15.90;62.40;15.20;102432.00;;;;31176799;28;20083;-64
2021/09/30 12:32:26;;;;;;;0.50;0.50;;;15.90;60.30;15.30;102411.00;;;;31182935;28;20508;-64
2021/09/30 12:47:42;;;;;;;0.20;0.20;;;16.10;61.20;15.50;102421.00;;;;31166705;28;20064;-64
2021/09/30 13:02:55;;;;;;;0.20;0.20;;;16.20;60.70;15.40;102387.00;;;;31178730;28;20050;-64
2021/09/30 13:18:06;;;;;;;0.10;0.10;;;16.10;62.10;15.40;102373.00;;;;31188432;28;20053;-64
2021/09/30 13:33:07;;;;;;;0.10;0.10;;;15.90;62.20;15.20;102360.00;;;;31203402;28;20057;-64
2021/09/30 13:48:08;;;;;;;0.17;0.17;;;16.00;61.60;15.30;102346.00;;;;31203107;28;20120;-64
2021/09/30 14:03:11;;;;;;;0.40;0.40;;;15.90;61.80;15.20;102315.00;;;;31179671;28;20049;-64
2021/09/30 14:18:12;;;;;;;0.10;0.10;;;15.80;61.80;15.10;102324.00;;;;31174727;28;20311;-63
2021/09/30 14:33:14;;;;;;;0.10;0.10;;;15.70;62.90;15.00;102303.00;;;;31167996;28;20060;-63
2021/09/30 14:48:19;;;;;;;0.10;0.10;;;15.70;63.70;15.00;102282.00;;;;31178237;28;20427;-63
2021/09/30 15:03:21;;;;;;;0.10;0.10;;;15.60;64.00;14.80;102272.00;;;;31182249;28;20559;-64
2021/09/30 15:18:38;;;;;;;0.10;0.10;;;15.50;64.80;14.80;102258.00;;;;31171028;28;20130;-63
2021/09/30 15:33:40;;;;;;;0.15;0.15;;;15.50;64.90;14.70;102235.00;;;;31169434;28;20042;-63
2021/09/30 15:48:47;;;;;;;0.10;0.10;;;15.40;65.50;14.60;102233.00;;;;31165738;28;20033;-63
2021/09/30 16:03:49;;;;;;;0.10;0.10;;;15.30;66.60;14.50;102235.00;;;;31162180;28;20057;-63
2021/09/30 16:18:51;;;;;;;0.10;0.10;;;15.20;66.20;14.30;102203.00;;;;31171649;28;20819;-63
2021/09/30 16:33:52;;;;;;;0.10;0.10;;;15.00;66.10;14.10;102188.00;;;;31163576;28;20121;-63
2021/09/30 16:48:57;;;;;;;0.10;0.10;;;14.90;66.80;14.00;102182.00;;;;31150001;28;20065;-63
2021/09/30 17:03:58;;;;;;;0.10;0.10;;;14.80;68.20;13.80;102180.00;;;;31150019;28;20037;-64
2021/09/30 17:19:05;;;;;;;0.10;0.10;;;14.40;68.80;13.60;102171.00;;;;31153838;28;20227;-63
2021/09/30 17:34:09;;;;;;;0.10;0.10;;;14.20;69.50;13.40;102160.00;;;;31163203;28;20045;-64
2021/09/30 17:49:12;;;;;;;0.10;0.10;;;14.10;69.70;13.20;102147.00;;;;31155872;28;20148;-63
2021/09/30 18:04:12;;;;;;;0.88;0.88;;;14.00;70.60;13.10;102135.00;;;;31140922;28;20578;-64
2021/09/30 18:19:16;;;;;;;0.13;0.13;;;13.90;71.20;13.00;102132.00;;;;31156838;28;20423;-64
2021/09/30 18:34:18;;;;;;;0.10;0.10;;;13.70;72.60;12.90;102138.00;;;;31168361;28;20631;-64
2021/09/30 18:49:19;;;;;;;0.10;0.10;;;13.70;73.20;12.80;102143.00;;;;31160916;28;20080;-63
2021/09/30 19:04:20;;;;;;;0.10;0.10;;;13.70;74.20;12.80;102130.00;;;;31160007;28;20045;-63
2021/09/30 19:19:21;;;;;;;0.10;0.10;;;13.60;74.60;12.70;102113.00;;;;31165573;28;20053;-63
2021/09/30 19:34:22;;;;;;;0.30;0.28;;;13.50;73.30;12.70;102110.00;;;;31162187;28;20686;-64
2021/09/30 19:49:25;;;;;;;0.10;0.10;;;13.50;73.70;12.70;102086.00;;;;31155880;28;20045;-63
2021/09/30 20:04:26;;;;;;;0.22;0.22;;;13.50;74.50;12.70;102082.00;;;;31161100;28;20041;-64
2021/09/30 20:19:28;;;;;;;0.10;0.10;;;13.50;75.70;12.70;102066.00;;;;31154353;28;20099;-63
2021/09/30 20:34:29;;;;;;;0.10;0.10;;;13.40;74.30;12.60;102055.00;;;;31157352;28;20491;-64
2021/09/30 20:49:30;;;;;;;0.30;0.30;;;13.40;73.70;12.60;102045.00;;;;31163428;28;20563;-63
2021/09/30 21:04:31;;;;;;;0.13;0.13;;;13.30;74.80;12.40;102037.00;;;;31147774;28;20076;-63
2021/09/30 21:19:33;;;;;;;0.10;0.10;;;13.30;74.90;12.30;102034.00;;;;31146967;28;20041;-63
2021/09/30 21:34:34;;;;;;;0.10;0.10;;;13.10;74.30;12.20;102007.00;;;;31147608;28;20506;-62
2021/09/30 21:49:36;;;;;;;0.10;0.10;;;13.00;74.90;12.10;101992.00;;;;31150877;28;20080;-62
2021/09/30 22:04:39;;;;;;;0.20;0.20;;;12.90;75.40;12.00;101987.00;;;;31162029;28;20041;-62
2021/09/30 22:19:44;;;;;;;0.20;0.20;;;13.70;76.70;11.90;101981.00;;;;31162860;28;20047;-63
2021/09/30 22:34:45;;;;;;;3.00;2.20;;;12.70;75.50;11.80;101976.00;;;;31160114;28;20049;-63
2021/09/30 22:49:46;;;;;;;0.13;0.13;;;12.60;75.80;11.60;101965.00;;;;31170629;28;20045;-63
2021/09/30 23:04:47;;;;;;;0.20;0.20;;;12.50;76.20;11.60;101938.00;;;;31170335;28;20049;-63
2021/09/30 23:19:48;;;;;;;0.25;0.25;;;12.50;77.30;11.70;101914.00;;;;31172077;28;20056;-63
2021/09/30 23:34:51;;;;;;;26.20;0.93;;;12.60;75.80;11.70;101908.00;;;;31177098;28;20060;-63
2021/09/30 23:49:52;;;;;;;0.10;0.10;;;12.60;75.60;11.80;101897.00;;;;31172186;28;20090;-63
